sensor_id;sensor_type;location;lat;lon;timestamp;pressure;altitude;pressure_sealevel;temperature;humidity
31121;BME280;17770;45.966;13.632;2023-03-18T00:01:35;100851.19;;;16.57;57.01
31121;BME280;17770;45.966;13.632;2023-03-18T00:04:02;100863.34;;;16.56;56.96
31121;BME280;17770;45.966;13.632;2023-03-18T00:06:28;100852.16;;;16.54;57.04
31121;BME280;17770;45.966;13.632;2023-03-18T00:08:54;100858.28;;;16.53;56.87
31121;BME280;17770;45.966;13.632;2023-03-18T00:11:21;100855.69;;;16.53;57.56
31121;BME280;17770;45.966;13.632;2023-03-18T00:13:47;100859.22;;;16.52;56.74
31121;BME280;17770;45.966;13.632;2023-03-18T00:16:14;100860.13;;;16.51;57.24
31121;BME280;17770;45.966;13.632;2023-03-18T00:18:41;100858.44;;;16.50;57.36
31121;BME280;17770;45.966;13.632;2023-03-18T00:21:07;100856.69;;;16.51;56.91
31121;BME280;17770;45.966;13.632;2023-03-18T00:23:34;100868.00;;;16.50;57.02
31121;BME280;17770;45.966;13.632;2023-03-18T00:26:01;100859.38;;;16.49;57.56
31121;BME280;17770;45.966;13.632;2023-03-18T00:28:27;100852.44;;;16.48;56.82
31121;BME280;17770;45.966;13.632;2023-03-18T00:30:53;100857.66;;;16.48;57.39
31121;BME280;17770;45.966;13.632;2023-03-18T00:33:20;100857.72;;;16.47;57.25
31121;BME280;17770;45.966;13.632;2023-03-18T00:35:46;100862.94;;;16.47;56.81
31121;BME280;17770;45.966;13.632;2023-03-18T00:38:12;100861.19;;;16.47;57.54
31121;BME280;17770;45.966;13.632;2023-03-18T00:40:46;100858.66;;;16.46;56.97
31121;BME280;17770;45.966;13.632;2023-03-18T00:43:22;100858.66;;;16.46;56.67
31121;BME280;17770;45.966;13.632;2023-03-18T00:45:54;100851.72;;;16.45;56.77
31121;BME280;17770;45.966;13.632;2023-03-18T00:48:21;100842.22;;;16.44;57.20
31121;BME280;17770;45.966;13.632;2023-03-18T00:50:47;100853.50;;;16.44;56.85
31121;BME280;17770;45.966;13.632;2023-03-18T00:53:15;100850.09;;;16.42;56.89
31121;BME280;17770;45.966;13.632;2023-03-18T00:55:41;100837.16;;;16.41;56.80
31121;BME280;17770;45.966;13.632;2023-03-18T00:58:07;100832.84;;;16.40;57.18
31121;BME280;17770;45.966;13.632;2023-03-18T01:00:35;100838.84;;;16.42;56.92
31121;BME280;17770;45.966;13.632;2023-03-18T01:03:01;100839.84;;;16.39;56.89
31121;BME280;17770;45.966;13.632;2023-03-18T01:05:31;100833.78;;;16.39;56.91
31121;BME280;17770;45.966;13.632;2023-03-18T01:07:57;100831.19;;;16.39;56.91
31121;BME280;17770;45.966;13.632;2023-03-18T01:10:24;100832.06;;;16.38;57.11
31121;BME280;17770;45.966;13.632;2023-03-18T01:12:52;100831.25;;;16.37;56.93
31121;BME280;17770;45.966;13.632;2023-03-18T01:15:19;100830.41;;;16.37;56.71
31121;BME280;17770;45.966;13.632;2023-03-18T01:17:45;100826.13;;;16.36;56.73
31121;BME280;17770;45.966;13.632;2023-03-18T01:20:12;100823.50;;;16.36;56.63
31121;BME280;17770;45.966;13.632;2023-03-18T01:22:38;100820.06;;;16.35;56.83
31121;BME280;17770;45.966;13.632;2023-03-18T01:25:08;100822.72;;;16.34;56.98
31121;BME280;17770;45.966;13.632;2023-03-18T01:27:36;100820.13;;;16.34;57.23
31121;BME280;17770;45.966;13.632;2023-03-18T01:30:04;100816.66;;;16.33;56.63
31121;BME280;17770;45.966;13.632;2023-03-18T01:32:30;100816.75;;;16.32;56.66
31121;BME280;17770;45.966;13.632;2023-03-18T01:34:56;100815.06;;;16.31;57.09
31121;BME280;17770;45.966;13.632;2023-03-18T01:37:25;100817.66;;;16.31;57.10
31121;BME280;17770;45.966;13.632;2023-03-18T01:40:02;100811.63;;;16.30;56.80
31121;BME280;17770;45.966;13.632;2023-03-18T01:42:28;100797.75;;;16.30;56.71
31121;BME280;17770;45.966;13.632;2023-03-18T01:47:45;100790.00;;;16.28;56.54
31121;BME280;17770;45.966;13.632;2023-03-18T01:50:15;100795.28;;;16.27;56.73
31121;BME280;17770;45.966;13.632;2023-03-18T01:52:43;100794.44;;;16.26;57.21
31121;BME280;17770;45.966;13.632;2023-03-18T01:55:17;100797.97;;;16.25;57.04
31121;BME280;17770;45.966;13.632;2023-03-18T01:57:45;100788.41;;;16.26;56.58
31121;BME280;17770;45.966;13.632;2023-03-18T02:00:11;100787.56;;;16.25;56.92
31121;BME280;17770;45.966;13.632;2023-03-18T02:02:41;100787.63;;;16.24;56.94
31121;BME280;17770;45.966;13.632;2023-03-18T02:05:08;100786.78;;;16.23;57.23
31121;BME280;17770;45.966;13.632;2023-03-18T02:07:36;100783.34;;;16.23;57.34
31121;BME280;17770;45.966;13.632;2023-03-18T02:10:07;100780.75;;;16.23;56.50
31121;BME280;17770;45.966;13.632;2023-03-18T02:12:36;100773.84;;;16.22;56.97
31121;BME280;17770;45.966;13.632;2023-03-18T02:15:06;100779.03;;;16.22;56.94
31121;BME280;17770;45.966;13.632;2023-03-18T02:17:36;100780.81;;;16.21;56.72
31121;BME280;17770;45.966;13.632;2023-03-18T02:22:50;100775.72;;;16.18;57.34
31121;BME280;17770;45.966;13.632;2023-03-18T02:28:02;100772.38;;;16.16;57.16
31121;BME280;17770;45.966;13.632;2023-03-18T02:30:34;100775.88;;;16.15;56.72
31121;BME280;17770;45.966;13.632;2023-03-18T02:33:04;100773.28;;;16.15;56.79
31121;BME280;17770;45.966;13.632;2023-03-18T02:35:30;100770.66;;;16.15;56.92
31121;BME280;17770;45.966;13.632;2023-03-18T02:37:59;100769.00;;;16.14;57.16
31121;BME280;17770;45.966;13.632;2023-03-18T02:40:26;100762.09;;;16.13;56.65
31121;BME280;17770;45.966;13.632;2023-03-18T02:42:53;100765.59;;;16.12;57.12
31121;BME280;17770;45.966;13.632;2023-03-18T02:45:32;100766.53;;;16.11;56.47
31121;BME280;17770;45.966;13.632;2023-03-18T02:48:09;100761.38;;;16.10;57.10
31121;BME280;17770;45.966;13.632;2023-03-18T02:50:36;100764.81;;;16.10;56.42
31121;BME280;17770;45.966;13.632;2023-03-18T02:53:03;100768.28;;;16.11;56.62
31121;BME280;17770;45.966;13.632;2023-03-18T02:55:29;100763.16;;;16.09;57.25
31121;BME280;17770;45.966;13.632;2023-03-18T02:57:55;100764.97;;;16.07;56.67
31121;BME280;17770;45.966;13.632;2023-03-18T03:00:22;100764.13;;;16.07;56.35
31121;BME280;17770;45.966;13.632;2023-03-18T03:02:48;100764.13;;;16.07;56.94
31121;BME280;17770;45.966;13.632;2023-03-18T03:05:14;100768.50;;;16.06;56.62
31121;BME280;17770;45.966;13.632;2023-03-18T03:07:40;100766.78;;;16.05;57.09
31121;BME280;17770;45.966;13.632;2023-03-18T03:10:08;100767.72;;;16.04;56.49
31121;BME280;17770;45.966;13.632;2023-03-18T03:12:37;100766.88;;;16.04;57.09
31121;BME280;17770;45.966;13.632;2023-03-18T03:15:04;100766.88;;;16.04;57.03
31121;BME280;17770;45.966;13.632;2023-03-18T03:17:32;100763.41;;;16.03;56.67
31121;BME280;17770;45.966;13.632;2023-03-18T03:19:58;100766.94;;;16.02;56.61
31121;BME280;17770;45.966;13.632;2023-03-18T03:22:24;100768.69;;;16.02;56.50
31121;BME280;17770;45.966;13.632;2023-03-18T03:24:50;100769.63;;;16.01;56.75
31121;BME280;17770;45.966;13.632;2023-03-18T03:27:16;100761.88;;;15.99;56.67
31121;BME280;17770;45.966;13.632;2023-03-18T03:29:42;100767.16;;;15.98;56.97
31121;BME280;17770;45.966;13.632;2023-03-18T03:32:08;100774.09;;;15.97;56.52
31121;BME280;17770;45.966;13.632;2023-03-18T03:34:34;100770.66;;;15.97;56.87
31121;BME280;17770;45.966;13.632;2023-03-18T03:37:00;100775.03;;;15.96;57.02
31121;BME280;17770;45.966;13.632;2023-03-18T03:39:26;100773.31;;;15.95;57.07
31121;BME280;17770;45.966;13.632;2023-03-18T03:41:52;100780.31;;;15.95;56.64
31121;BME280;17770;45.966;13.632;2023-03-18T03:44:18;100773.41;;;15.94;57.09
31121;BME280;17770;45.966;13.632;2023-03-18T03:46:47;100786.47;;;15.92;57.03
31121;BME280;17770;45.966;13.632;2023-03-18T03:49:13;100770.94;;;15.91;57.04
31121;BME280;17770;45.966;13.632;2023-03-18T03:51:39;100773.47;;;15.92;56.77
31121;BME280;17770;45.966;13.632;2023-03-18T03:54:06;100775.22;;;15.92;56.81
31121;BME280;17770;45.966;13.632;2023-03-18T03:56:32;100773.59;;;15.89;56.69
31121;BME280;17770;45.966;13.632;2023-03-18T03:58:58;100784.00;;;15.89;56.57
31121;BME280;17770;45.966;13.632;2023-03-18T04:01:34;100779.72;;;15.88;56.74
31121;BME280;17770;45.966;13.632;2023-03-18T04:04:00;100776.28;;;15.88;56.66
31121;BME280;17770;45.966;13.632;2023-03-18T04:06:28;100779.72;;;15.88;56.63
31121;BME280;17770;45.966;13.632;2023-03-18T04:08:59;100784.09;;;15.88;56.91
31121;BME280;17770;45.966;13.632;2023-03-18T04:11:26;100778.94;;;15.86;56.63
31121;BME280;17770;45.966;13.632;2023-03-18T04:13:52;100784.22;;;15.85;56.56
31121;BME280;17770;45.966;13.632;2023-03-18T04:16:19;100780.78;;;15.84;56.49
31121;BME280;17770;45.966;13.632;2023-03-18T04:18:45;100785.97;;;15.84;56.14
31121;BME280;17770;45.966;13.632;2023-03-18T04:21:11;100788.63;;;15.83;57.02
31121;BME280;17770;45.966;13.632;2023-03-18T04:23:51;100785.19;;;15.82;57.07
31121;BME280;17770;45.966;13.632;2023-03-18T04:26:16;100778.31;;;15.81;56.75
31121;BME280;17770;45.966;13.632;2023-03-18T04:28:42;100783.50;;;15.81;56.38
31121;BME280;17770;45.966;13.632;2023-03-18T04:31:11;100780.91;;;15.81;56.70
31121;BME280;17770;45.966;13.632;2023-03-18T04:33:41;100771.41;;;15.80;56.94
31121;BME280;17770;45.966;13.632;2023-03-18T04:36:07;100768.94;;;15.77;56.93
31121;BME280;17770;45.966;13.632;2023-03-18T04:38:34;100774.13;;;15.77;56.51
31121;BME280;17770;45.966;13.632;2023-03-18T04:41:00;100769.88;;;15.76;56.48
31121;BME280;17770;45.966;13.632;2023-03-18T04:43:25;100771.69;;;15.74;56.71
31121;BME280;17770;45.966;13.632;2023-03-18T04:45:51;100778.63;;;15.74;56.75
31121;BME280;17770;45.966;13.632;2023-03-18T04:48:19;100770.00;;;15.73;57.03
31121;BME280;17770;45.966;13.632;2023-03-18T04:50:45;100779.47;;;15.74;56.89
31121;BME280;17770;45.966;13.632;2023-03-18T04:53:16;100776.09;;;15.72;56.68
31121;BME280;17770;45.966;13.632;2023-03-18T04:55:43;100780.41;;;15.73;56.48
31121;BME280;17770;45.966;13.632;2023-03-18T04:58:11;100783.97;;;15.71;56.61
31121;BME280;17770;45.966;13.632;2023-03-18T05:00:42;100776.16;;;15.71;57.02
31121;BME280;17770;45.966;13.632;2023-03-18T05:03:20;100783.19;;;15.68;56.49
31121;BME280;17770;45.966;13.632;2023-03-18T05:05:46;100786.63;;;15.69;56.72
31121;BME280;17770;45.966;13.632;2023-03-18T05:08:15;100789.31;;;15.68;56.56
31121;BME280;17770;45.966;13.632;2023-03-18T05:10:42;100785.03;;;15.67;56.38
31121;BME280;17770;45.966;13.632;2023-03-18T05:13:11;100792.91;;;15.65;56.89
31121;BME280;17770;45.966;13.632;2023-03-18T05:15:37;100792.91;;;15.65;56.33
31121;BME280;17770;45.966;13.632;2023-03-18T05:18:03;100794.72;;;15.63;56.89
31121;BME280;17770;45.966;13.632;2023-03-18T05:20:30;100795.53;;;15.63;57.04
31121;BME280;17770;45.966;13.632;2023-03-18T05:22:57;100799.06;;;15.62;56.47
31121;BME280;17770;45.966;13.632;2023-03-18T05:25:48;100792.19;;;15.61;56.88
31121;BME280;17770;45.966;13.632;2023-03-18T05:28:16;100807.78;;;15.61;56.59
31121;BME280;17770;45.966;13.632;2023-03-18T05:30:50;100797.38;;;15.61;56.68
31121;BME280;17770;45.966;13.632;2023-03-18T05:33:17;100805.25;;;15.60;56.42
31121;BME280;17770;45.966;13.632;2023-03-18T05:35:52;100795.75;;;15.59;56.65
31121;BME280;17770;45.966;13.632;2023-03-18T05:38:22;100803.47;;;15.60;56.57
31121;BME280;17770;45.966;13.632;2023-03-18T05:40:49;100797.44;;;15.60;56.62
31121;BME280;17770;45.966;13.632;2023-03-18T05:43:20;100797.50;;;15.58;56.91
31121;BME280;17770;45.966;13.632;2023-03-18T05:45:50;100802.69;;;15.58;56.13
31121;BME280;17770;45.966;13.632;2023-03-18T05:48:20;100794.97;;;15.57;56.51
31121;BME280;17770;45.966;13.632;2023-03-18T05:50:53;100799.41;;;15.55;56.53
31121;BME280;17770;45.966;13.632;2023-03-18T05:53:23;100800.22;;;15.55;56.60
31121;BME280;17770;45.966;13.632;2023-03-18T05:55:55;100805.50;;;15.54;56.67
31121;BME280;17770;45.966;13.632;2023-03-18T05:58:21;100802.09;;;15.52;56.41
31121;BME280;17770;45.966;13.632;2023-03-18T06:00:53;100802.09;;;15.52;56.59
31121;BME280;17770;45.966;13.632;2023-03-18T06:03:19;100805.63;;;15.51;56.89
31121;BME280;17770;45.966;13.632;2023-03-18T06:05:45;100816.03;;;15.51;56.82
31121;BME280;17770;45.966;13.632;2023-03-18T06:08:12;100806.56;;;15.50;56.67
31121;BME280;17770;45.966;13.632;2023-03-18T06:10:39;100800.50;;;15.49;56.42
31121;BME280;17770;45.966;13.632;2023-03-18T06:13:06;100816.94;;;15.50;56.30
31121;BME280;17770;45.966;13.632;2023-03-18T06:15:32;100815.25;;;15.49;56.42
31121;BME280;17770;45.966;13.632;2023-03-18T06:17:58;100811.81;;;15.48;56.33
31121;BME280;17770;45.966;13.632;2023-03-18T06:20:24;100810.97;;;15.48;56.49
31121;BME280;17770;45.966;13.632;2023-03-18T06:22:50;100821.34;;;15.48;56.38
31121;BME280;17770;45.966;13.632;2023-03-18T06:25:17;100818.75;;;15.48;56.71
31121;BME280;17770;45.966;13.632;2023-03-18T06:27:43;100816.22;;;15.46;56.32
31121;BME280;17770;45.966;13.632;2023-03-18T06:30:10;100816.16;;;15.48;56.32
31121;BME280;17770;45.966;13.632;2023-03-18T06:32:37;100825.78;;;15.46;56.79
31121;BME280;17770;45.966;13.632;2023-03-18T06:35:03;100817.13;;;15.45;56.64
31121;BME280;17770;45.966;13.632;2023-03-18T06:37:30;100820.63;;;15.44;56.23
31121;BME280;17770;45.966;13.632;2023-03-18T06:39:57;100818.97;;;15.43;56.42
31121;BME280;17770;45.966;13.632;2023-03-18T06:42:23;100820.72;;;15.43;56.16
31121;BME280;17770;45.966;13.632;2023-03-18T06:45:00;100815.50;;;15.43;56.82
31121;BME280;17770;45.966;13.632;2023-03-18T06:47:39;100818.97;;;15.43;56.53
31121;BME280;17770;45.966;13.632;2023-03-18T06:50:05;100816.44;;;15.42;56.32
31121;BME280;17770;45.966;13.632;2023-03-18T06:52:35;100824.22;;;15.42;55.98
31121;BME280;17770;45.966;13.632;2023-03-18T06:55:08;100830.25;;;15.42;56.52
31121;BME280;17770;45.966;13.632;2023-03-18T06:57:37;100827.72;;;15.41;56.43
31121;BME280;17770;45.966;13.632;2023-03-18T07:00:04;100832.06;;;15.40;56.18
31121;BME280;17770;45.966;13.632;2023-03-18T07:02:30;100836.38;;;15.41;56.16
31121;BME280;17770;45.966;13.632;2023-03-18T07:04:57;100832.91;;;15.41;56.77
31121;BME280;17770;45.966;13.632;2023-03-18T07:07:25;100835.50;;;15.41;56.46
31121;BME280;17770;45.966;13.632;2023-03-18T07:09:52;100831.28;;;15.38;56.71
31121;BME280;17770;45.966;13.632;2023-03-18T07:12:18;100839.84;;;15.40;56.47
31121;BME280;17770;45.966;13.632;2023-03-18T07:14:44;100839.91;;;15.39;56.25
31121;BME280;17770;45.966;13.632;2023-03-18T07:17:10;100839.91;;;15.39;56.69
31121;BME280;17770;45.966;13.632;2023-03-18T07:19:38;100838.22;;;15.38;56.48
31121;BME280;17770;45.966;13.632;2023-03-18T07:22:04;100835.63;;;15.38;56.24
31121;BME280;17770;45.966;13.632;2023-03-18T07:24:31;100836.53;;;15.37;56.33
31121;BME280;17770;45.966;13.632;2023-03-18T07:26:57;100840.88;;;15.36;56.57
31121;BME280;17770;45.966;13.632;2023-03-18T07:29:23;100845.16;;;15.37;56.00
31121;BME280;17770;45.966;13.632;2023-03-18T07:31:49;100843.47;;;15.36;55.93
31121;BME280;17770;45.966;13.632;2023-03-18T07:34:15;100841.72;;;15.37;56.78
31121;BME280;17770;45.966;13.632;2023-03-18T07:36:43;100844.34;;;15.37;55.98
31121;BME280;17770;45.966;13.632;2023-03-18T07:39:09;100851.22;;;15.38;55.86
31121;BME280;17770;45.966;13.632;2023-03-18T07:41:35;100849.44;;;15.40;56.29
31121;BME280;17770;45.966;13.632;2023-03-18T07:44:01;100852.13;;;15.37;55.92
31121;BME280;17770;45.966;13.632;2023-03-18T07:46:27;100861.59;;;15.38;56.10
31121;BME280;17770;45.966;13.632;2023-03-18T07:48:54;100861.59;;;15.38;56.02
31121;BME280;17770;45.966;13.632;2023-03-18T07:51:20;100862.47;;;15.38;56.08
31121;BME280;17770;45.966;13.632;2023-03-18T07:53:46;100863.34;;;15.37;56.38
31121;BME280;17770;45.966;13.632;2023-03-18T07:56:12;100865.13;;;15.37;56.02
31121;BME280;17770;45.966;13.632;2023-03-18T07:58:38;100868.59;;;15.36;56.09
31121;BME280;17770;45.966;13.632;2023-03-18T08:01:04;100873.75;;;15.37;56.15
31121;BME280;17770;45.966;13.632;2023-03-18T08:03:30;100874.66;;;15.36;55.65
31121;BME280;17770;45.966;13.632;2023-03-18T08:05:56;100879.00;;;15.36;55.84
31121;BME280;17770;45.966;13.632;2023-03-18T08:08:22;100876.34;;;15.37;56.12
31121;BME280;17770;45.966;13.632;2023-03-18T08:10:49;100879.84;;;15.36;56.00
31121;BME280;17770;45.966;13.632;2023-03-18T08:13:15;100884.19;;;15.36;56.32
31121;BME280;17770;45.966;13.632;2023-03-18T08:15:41;100885.91;;;15.37;56.63
31121;BME280;17770;45.966;13.632;2023-03-18T08:18:07;100889.41;;;15.36;56.45
31121;BME280;17770;45.966;13.632;2023-03-18T08:20:34;100885.91;;;15.37;55.91
31121;BME280;17770;45.966;13.632;2023-03-18T08:23:00;100892.00;;;15.36;55.71
31121;BME280;17770;45.966;13.632;2023-03-18T08:25:26;100891.09;;;15.37;56.03
31121;BME280;17770;45.966;13.632;2023-03-18T08:27:51;100882.47;;;15.36;56.25
31121;BME280;17770;45.966;13.632;2023-03-18T08:30:18;100888.50;;;15.37;55.90
31121;BME280;17770;45.966;13.632;2023-03-18T08:32:44;100885.06;;;15.36;55.83
31121;BME280;17770;45.966;13.632;2023-03-18T08:35:10;100889.34;;;15.37;55.97
31121;BME280;17770;45.966;13.632;2023-03-18T08:37:36;100888.50;;;15.37;56.16
31121;BME280;17770;45.966;13.632;2023-03-18T08:40:03;100890.25;;;15.36;56.27
31121;BME280;17770;45.966;13.632;2023-03-18T08:42:28;100888.53;;;15.35;56.00
31121;BME280;17770;45.966;13.632;2023-03-18T08:44:55;100888.50;;;15.37;56.22
31121;BME280;17770;45.966;13.632;2023-03-18T08:47:21;100889.41;;;15.36;56.02
31121;BME280;17770;45.966;13.632;2023-03-18T08:49:49;100889.41;;;15.36;56.04
31121;BME280;17770;45.966;13.632;2023-03-18T08:52:15;100876.41;;;15.36;56.27
31121;BME280;17770;45.966;13.632;2023-03-18T08:54:41;100876.41;;;15.36;55.71
31121;BME280;17770;45.966;13.632;2023-03-18T08:57:07;100875.56;;;15.35;55.98
31121;BME280;17770;45.966;13.632;2023-03-18T08:59:33;100879.00;;;15.36;56.37
31121;BME280;17770;45.966;13.632;2023-03-18T09:01:59;100873.81;;;15.36;56.35
31121;BME280;17770;45.966;13.632;2023-03-18T09:04:25;100880.75;;;15.35;56.41
31121;BME280;17770;45.966;13.632;2023-03-18T09:06:51;100884.19;;;15.36;55.83
31121;BME280;17770;45.966;13.632;2023-03-18T09:09:16;100874.66;;;15.36;56.33
31121;BME280;17770;45.966;13.632;2023-03-18T09:11:42;100877.31;;;15.35;56.62
31121;BME280;17770;45.966;13.632;2023-03-18T09:14:10;100884.19;;;15.36;56.15
31121;BME280;17770;45.966;13.632;2023-03-18T09:16:38;100873.81;;;15.36;56.44
31121;BME280;17770;45.966;13.632;2023-03-18T09:19:04;100878.13;;;15.37;56.45
31121;BME280;17770;45.966;13.632;2023-03-18T09:21:30;100871.13;;;15.37;56.19
31121;BME280;17770;45.966;13.632;2023-03-18T09:23:56;100877.19;;;15.38;56.06
31121;BME280;17770;45.966;13.632;2023-03-18T09:26:22;100879.78;;;15.38;56.24
31121;BME280;17770;45.966;13.632;2023-03-18T09:28:48;100873.75;;;15.37;56.14
31121;BME280;17770;45.966;13.632;2023-03-18T09:31:14;100872.81;;;15.40;56.41
31121;BME280;17770;45.966;13.632;2023-03-18T09:33:41;100875.41;;;15.40;56.45
31121;BME280;17770;45.966;13.632;2023-03-18T09:36:07;100872.81;;;15.40;56.35
31121;BME280;17770;45.966;13.632;2023-03-18T09:38:33;100872.84;;;15.38;56.50
31121;BME280;17770;45.966;13.632;2023-03-18T09:41:48;100868.44;;;15.40;56.63
31121;BME280;17770;45.966;13.632;2023-03-18T09:44:02;100871.03;;;15.40;56.54
31121;BME280;17770;45.966;13.632;2023-03-18T09:54:17;100868.41;;;15.42;56.78
31121;BME280;17770;45.966;13.632;2023-03-18T09:56:47;100863.22;;;15.42;56.80
31121;BME280;17770;45.966;13.632;2023-03-18T09:59:18;100866.63;;;15.42;57.08
31121;BME280;17770;45.966;13.632;2023-03-18T10:01:46;100863.16;;;15.43;57.12
31121;BME280;17770;45.966;13.632;2023-03-18T10:04:18;100862.16;;;15.46;56.97
31121;BME280;17770;45.966;13.632;2023-03-18T10:06:45;100868.28;;;15.45;56.94
31121;BME280;17770;45.966;13.632;2023-03-18T10:09:26;100868.28;;;15.45;56.94
31121;BME280;17770;45.966;13.632;2023-03-18T10:14:58;100869.03;;;15.47;57.34
31121;BME280;17770;45.966;13.632;2023-03-18T10:18:11;100869.09;;;15.45;57.29
31121;BME280;17770;45.966;13.632;2023-03-18T10:30:20;100868.94;;;15.50;57.74
31121;BME280;17770;45.966;13.632;2023-03-18T10:35:36;100872.25;;;15.53;57.87
31121;BME280;17770;45.966;13.632;2023-03-18T10:38:26;100866.19;;;15.53;57.49
31121;BME280;17770;45.966;13.632;2023-03-18T10:40:54;100865.34;;;15.52;57.70
31121;BME280;17770;45.966;13.632;2023-03-18T10:43:21;100866.13;;;15.54;57.50
31121;BME280;17770;45.966;13.632;2023-03-18T10:45:48;100861.78;;;15.55;58.11
31121;BME280;17770;45.966;13.632;2023-03-18T10:48:20;100861.66;;;15.58;58.17
31121;BME280;17770;45.966;13.632;2023-03-18T10:50:51;100858.22;;;15.57;58.34
31121;BME280;17770;45.966;13.632;2023-03-18T10:55:52;100860.66;;;15.60;57.85
31121;BME280;17770;45.966;13.632;2023-03-18T10:58:19;100854.59;;;15.61;57.89
31121;BME280;17770;45.966;13.632;2023-03-18T11:00:46;100859.72;;;15.63;58.17
31121;BME280;17770;45.966;13.632;2023-03-18T11:03:17;100851.00;;;15.64;58.13
31121;BME280;17770;45.966;13.632;2023-03-18T11:05:44;100859.56;;;15.66;58.46
31121;BME280;17770;45.966;13.632;2023-03-18T11:08:26;100850.84;;;15.67;58.62
31121;BME280;17770;45.966;13.632;2023-03-18T11:10:53;100849.97;;;15.68;58.21
31121;BME280;17770;45.966;13.632;2023-03-18T11:13:19;100853.31;;;15.70;58.99
31121;BME280;17770;45.966;13.632;2023-03-18T11:15:50;100855.88;;;15.72;58.26
31121;BME280;17770;45.966;13.632;2023-03-18T11:18:18;100850.63;;;15.73;59.00
31121;BME280;17770;45.966;13.632;2023-03-18T11:20:46;100848.78;;;15.75;59.17
31121;BME280;17770;45.966;13.632;2023-03-18T11:23:30;100844.44;;;15.76;58.94
31121;BME280;17770;45.966;13.632;2023-03-18T11:26:19;100835.66;;;15.78;58.59
31121;BME280;17770;45.966;13.632;2023-03-18T11:28:46;100832.06;;;15.81;59.30
31121;BME280;17770;45.966;13.632;2023-03-18T11:31:15;100833.72;;;15.83;58.92
31121;BME280;17770;45.966;13.632;2023-03-18T11:33:42;100828.50;;;15.83;59.17
31121;BME280;17770;45.966;13.632;2023-03-18T11:36:08;100828.44;;;15.85;59.17
31121;BME280;17770;45.966;13.632;2023-03-18T11:38:35;100828.38;;;15.86;58.96
31121;BME280;17770;45.966;13.632;2023-03-18T11:43:31;100821.28;;;15.90;59.28
31121;BME280;17770;45.966;13.632;2023-03-18T11:45:57;100828.09;;;15.92;59.78
31121;BME280;17770;45.966;13.632;2023-03-18T11:48:29;100828.03;;;15.94;59.63
31121;BME280;17770;45.966;13.632;2023-03-18T11:54:16;100823.53;;;15.97;60.06
31121;BME280;17770;45.966;13.632;2023-03-18T12:06:32;100807.53;;;16.06;60.42
31121;BME280;17770;45.966;13.632;2023-03-18T12:32:24;100794.56;;;16.23;61.68
31121;BME280;17770;45.966;13.632;2023-03-18T12:45:19;100776.81;;;16.33;62.68
31121;BME280;17770;45.966;13.632;2023-03-18T12:50:29;100765.31;;;16.37;61.17
31121;BME280;17770;45.966;13.632;2023-03-18T12:53:06;100769.56;;;16.39;61.73
31121;BME280;17770;45.966;13.632;2023-03-18T12:55:37;100761.59;;;16.42;61.19
31121;BME280;17770;45.966;13.632;2023-03-18T12:58:25;100762.41;;;16.43;60.89
31121;BME280;17770;45.966;13.632;2023-03-18T13:00:58;100757.06;;;16.47;62.74
31121;BME280;17770;45.966;13.632;2023-03-18T13:03:35;100762.19;;;16.49;61.01
31121;BME280;17770;45.966;13.632;2023-03-18T13:08:58;100757.69;;;16.52;62.62
31121;BME280;17770;45.966;13.632;2023-03-18T13:14:16;100754.00;;;16.56;61.74
31121;BME280;17770;45.966;13.632;2023-03-18T13:16:44;100746.19;;;16.56;60.72
31121;BME280;17770;45.966;13.632;2023-03-18T13:19:11;100753.84;;;16.59;60.08
31121;BME280;17770;45.966;13.632;2023-03-18T13:21:42;100753.72;;;16.62;61.63
31121;BME280;17770;45.966;13.632;2023-03-18T13:24:22;100748.50;;;16.62;60.55
31121;BME280;17770;45.966;13.632;2023-03-18T13:29:26;100742.22;;;16.66;60.86
31121;BME280;17770;45.966;13.632;2023-03-18T13:42:39;100743.38;;;16.78;59.23
31121;BME280;17770;45.966;13.632;2023-03-18T13:45:10;100730.28;;;16.79;60.12
31121;BME280;17770;45.966;13.632;2023-03-18T13:47:41;100732.81;;;16.81;59.00
31121;BME280;17770;45.966;13.632;2023-03-18T13:52:43;100728.22;;;16.86;58.72
31121;BME280;17770;45.966;13.632;2023-03-18T13:55:19;100734.22;;;16.88;59.29
31121;BME280;17770;45.966;13.632;2023-03-18T13:57:53;100722.88;;;16.89;58.72
31121;BME280;17770;45.966;13.632;2023-03-18T14:05:49;100723.34;;;16.97;58.96
31121;BME280;17770;45.966;13.632;2023-03-18T14:08:35;100725.78;;;17.00;59.89
31121;BME280;17770;45.966;13.632;2023-03-18T14:16:22;100716.69;;;17.09;58.75
31121;BME280;17770;45.966;13.632;2023-03-18T14:21:38;100717.28;;;17.14;58.88
31121;BME280;17770;45.966;13.632;2023-03-18T14:26:37;100715.28;;;17.19;59.14
31121;BME280;17770;45.966;13.632;2023-03-18T14:39:08;100693.06;;;17.29;59.33
31121;BME280;17770;45.966;13.632;2023-03-18T14:41:40;100702.53;;;17.30;59.09
31121;BME280;17770;45.966;13.632;2023-03-18T14:44:20;100692.88;;;17.32;58.73
31121;BME280;17770;45.966;13.632;2023-03-18T14:46:48;100695.41;;;17.33;58.96
31121;BME280;17770;45.966;13.632;2023-03-18T14:52:04;100691.78;;;17.36;58.59
31121;BME280;17770;45.966;13.632;2023-03-18T14:54:32;100692.56;;;17.38;59.12
31121;BME280;17770;45.966;13.632;2023-03-18T14:57:01;100693.31;;;17.40;59.49
31121;BME280;17770;45.966;13.632;2023-03-18T14:59:28;100690.56;;;17.43;59.33
31121;BME280;17770;45.966;13.632;2023-03-18T15:01:54;100683.50;;;17.45;58.96
31121;BME280;17770;45.966;13.632;2023-03-18T15:04:21;100694.66;;;17.48;59.90